Historyczne dane pomiarowe

Dodano dane terminowe – wersja testowa.

Dane z okresu 1951-2019

Wersja bazy: 1.34 [2019-03-16, lista zmian], aktualizacja planowana na 2019-04-15

Dane meteo z obszaru Polski uzyskane na podstawie danych udostępnionych przez Instytut Meteorologii i Gospodarki Wodnej – Państwowy Instytut Badawczy.

 

Wybierz Datę:    

       

TemperaturaWilgotnośćWiatrCiśnienieOpadyŚniegCzas trwania zjawisk
 Stacja t tx tn tng RH VA  wxwx mslp ppp RRR   cm mm wxwxwxwxwxwxwx
1987-08-14 9.5 11.3 6.6- 86.8- 6.7 1.3---- 1.1------------
1987-08-13 10.4 15.3 6.5- 78.0- 3.3 0.3---- 0.0------------
1987-08-12 10.0 14.4 6.3- 83.3- 5.3 0.3---- 0.4------------
1987-08-11 10.8 14.9 8.4- 86.0- 6.0 0.3---- 0.6------------
1987-08-10 13.4 16.9 11.1- 78.5- 6.0 0.7---- 1.1------------
1987-08-09 14.0 19.5 8.3- 62.8- 4.3 1.7---- 0.3------------
1987-08-08 12.3 16.5 6.4- 69.5- 1.3 1.3---- 0.0------------
1987-08-07 7.0 9.5 3.2- 90.8- 5.0 1.7---- 0.2------------
1987-08-06 7.1 11.9 5.0- 88.0- 5.7 0.7---- 2.8------------
1987-08-05 8.5 12.5 6.9- 93.0- 6.3 0.7---- 6.3------------
1987-08-04 12.2 13.4 11.1- 94.8- 7.0 1.0---- 7.5------------
1987-08-03 12.2 16.1 9.3- 80.3- 5.3 1.3---- 0.7------------
1987-08-02 11.9 15.1 9.3- 82.3- 7.3 0.7---- 15.5------------
1987-08-01 11.1 16.4 7.4- 91.8- 7.3 1.3---- 3.6------------
1987-07-31 12.5 16.4 9.7- 96.3- 8.0 1.3---- 3.6------------
1987-07-30 14.8 19.9 10.3- 80.3- 2.0 1.7---- 0.0------------
1987-07-29 10.9 15.4 7.0- 83.3- 6.7 1.7---- 0.0------------
1987-07-28 9.6 10.7 8.7- 94.0- 7.7 1.0---- 4.8------------
1987-07-27 9.1 12.4 5.5- 82.5- 6.7 2.3---- 3.0------------
1987-07-26 10.0 16.0 7.3- 98.5- 8.0 0.0---- 4.4------------
1987-07-25 16.4 20.6 13.3- 86.0- 5.3 1.7---- 6.7------------
1987-07-24 18.3 23.0 14.5- 86.0- 2.7 0.7---- 13.3------------
1987-07-23 19.6 25.4 14.3- 73.0- 3.0 0.7---- 12.8------------
1987-07-22 16.3 20.7 13.0- 76.3- 4.7 0.7---- 0.0------------
1987-07-21 18.5 23.9 14.5- 76.8- 3.3 0.7---- 1.2------------
1987-07-20 18.0 21.2 15.3- 80.8- 3.7 0.7---- 0.0------------
1987-07-19 20.5 23.4 18.2- 78.3- 3.0 2.0---- 5.6------------
1987-07-18 21.7 26.1 16.4- 74.0- 1.3 1.7---- 0.0------------
1987-07-17 21.6 26.9 16.8- 66.3- 3.3 6.7---- 0.0------------
1987-07-16 19.9 24.9 14.4- 77.5- 4.7 1.3---- 0.8------------
1987-07-15 16.6 21.9 10.7- 70.8- 1.3 1.7---- 0.0------------
1987-07-14 14.2 18.4 9.2- 69.0- 0.7 1.7---- 0.0------------
1987-07-13 16.3 21.7 12.9- 82.0- 4.0 0.7---- 0.0------------
1987-07-12 18.7 24.2 12.9- 67.8- 4.3 6.3---- 6.0------------
1987-07-11 14.0 20.4 7.6- 71.8- 1.7 1.3---- 0.0------------
1987-07-10 11.7 16.2 8.3- 76.8- 4.3 0.7---- 0.0------------
1987-07-09 14.4 20.3 12.1- 83.8- 8.0 0.7---- 16.5------------
1987-07-08 18.6 24.4 12.3- 61.3- 0.3 2.7---- 0.0------------
1987-07-07 17.7 23.9 10.9- 55.0- 0.0 0.7---- 0.0------------
1987-07-06 14.9 19.4 9.4- 65.0- 0.0 1.0---- 0.0------------
1987-07-05 12.2 16.1 10.3- 94.0- 5.3 1.3---- 0.1------------
1987-07-04 16.1 20.4 12.2- 79.0- 3.0 0.7---- 0.0------------
1987-07-03 15.3 18.4 12.0- 83.8- 6.7 0.7---- 0.0------------
1987-07-02 15.6 22.9 12.2- 95.0- 8.0 1.0---- 0.0------------
1987-07-01 21.6 26.4 16.2- 72.0- 0.0 1.3---- 0.0------------
1987-06-30 21.3 26.5 15.4- 73.5- 0.0 1.0---- 0.0------------
1987-06-29 18.8 22.6 14.9- 81.3- 3.3 0.3---- 0.0------------
1987-06-28 16.3 21.9 11.5- 78.3- 4.0 0.7---- 0.0------------
1987-06-27 14.2 17.0 12.5- 97.3- 8.0 1.3---- 12.1------------
1987-06-26 14.0 19.9 7.0- 71.8- 2.3 4.7---- 18.1------------
1987-06-25 11.1 14.5 10.4- 88.0- 5.0 0.7---- 0.2------------
1987-06-24 13.4 17.8 10.3- 74.8- 5.0 1.7---- 8.4------------
1987-06-23 11.7 17.4 9.2- 85.8- 6.0 0.0---- 0.0------------
1987-06-22 10.8 14.3 9.5- 98.5- 8.0 1.0---- 2.0------------
1987-06-21 14.2 17.2 9.8- 82.3- 6.0 1.0---- 3.6------------
1987-06-20 12.1 17.3 7.7- 71.0- 3.7 2.0---- 2.5------------
1987-06-19 8.7 13.5 5.0- 79.5- 2.7 1.3---- 0.0------------
1987-06-18 6.9 9.9 5.1- 94.0- 7.3 2.0---- 10.1------------
1987-06-17 7.3 11.4 4.9- 90.3- 4.0 0.3---- 1.7------------
1987-06-16 10.9 17.7 6.9- 94.0- 7.7 0.7---- 14.3------------
352.2 ms

 

Źródłem pochodzenia danych jest Instytut Meteorologii i Gospodarki Wodnej – Państwowy Instytut Badawczy. Dane Instytutu Meteorologii i Gospodarki Wodnej – Państwowego Instytutu Badawczego zostały przetworzone.

Dane źródłowe można odnaleźć na stronie https://dane.imgw.pl